sensor_id;sensor_type;location;lat;lon;timestamp;pressure;altitude;pressure_sealevel;temperature;humidity
61568;BME280;47462;59.172;17.196;2023-01-29T00:02:01;100848.16;;;0.28;86.93
61568;BME280;47462;59.172;17.196;2023-01-29T00:04:27;100869.69;;;0.38;87.01
61568;BME280;47462;59.172;17.196;2023-01-29T00:06:53;100798.91;;;-0.02;86.78
61568;BME280;47462;59.172;17.196;2023-01-29T00:09:18;100872.41;;;0.48;87.03
61568;BME280;47462;59.172;17.196;2023-01-29T00:11:44;100839.41;;;0.16;86.67
61568;BME280;47462;59.172;17.196;2023-01-29T00:14:09;100868.22;;;0.53;87.15
61568;BME280;47462;59.172;17.196;2023-01-29T00:16:35;100850.84;;;0.35;87.04
61568;BME280;47462;59.172;17.196;2023-01-29T00:19:01;100805.03;;;0.07;87.43
61568;BME280;47462;59.172;17.196;2023-01-29T00:21:27;100833.69;;;0.34;87.62
61568;BME280;47462;59.172;17.196;2023-01-29T00:23:55;100822.63;;;0.37;87.64
61568;BME280;47462;59.172;17.196;2023-01-29T00:26:20;100818.38;;;0.41;87.63
61568;BME280;47462;59.172;17.196;2023-01-29T00:28:45;100830.31;;;0.35;88.24
61568;BME280;47462;59.172;17.196;2023-01-29T00:31:17;100875.31;;;0.70;88.12
61568;BME280;47462;59.172;17.196;2023-01-29T00:33:43;100886.50;;;0.74;88.21
61568;BME280;47462;59.172;17.196;2023-01-29T00:36:11;100879.69;;;0.77;88.39
61568;BME280;47462;59.172;17.196;2023-01-29T00:38:37;100808.13;;;0.42;88.02
61568;BME280;47462;59.172;17.196;2023-01-29T00:41:13;100864.19;;;0.71;88.04
61568;BME280;47462;59.172;17.196;2023-01-29T00:43:59;100860.84;;;0.75;87.80
61568;BME280;47462;59.172;17.196;2023-01-29T00:46:43;100845.22;;;0.63;88.13
61568;BME280;47462;59.172;17.196;2023-01-29T00:49:09;100791.75;;;0.32;88.28
61568;BME280;47462;59.172;17.196;2023-01-29T00:51:35;100781.41;;;0.28;87.99
61568;BME280;47462;59.172;17.196;2023-01-29T00:54:01;100853.78;;;0.62;88.08
61568;BME280;47462;59.172;17.196;2023-01-29T00:56:27;100757.22;;;0.13;87.98
61568;BME280;47462;59.172;17.196;2023-01-29T00:58:53;100848.84;;;0.74;88.25
61568;BME280;47462;59.172;17.196;2023-01-29T01:01:20;100839.41;;;0.75;87.69
61568;BME280;47462;59.172;17.196;2023-01-29T01:04:05;100790.13;;;0.39;87.61
61568;BME280;47462;59.172;17.196;2023-01-29T01:06:31;100771.16;;;0.29;87.74
61568;BME280;47462;59.172;17.196;2023-01-29T01:08:56;100766.00;;;0.28;87.50
61568;BME280;47462;59.172;17.196;2023-01-29T01:11:41;100835.13;;;0.72;87.96
61568;BME280;47462;59.172;17.196;2023-01-29T01:14:07;100801.44;;;0.53;87.74
61568;BME280;47462;59.172;17.196;2023-01-29T01:16:32;100828.09;;;0.60;88.15
61568;BME280;47462;59.172;17.196;2023-01-29T01:18:58;100739.44;;;0.26;87.79
61568;BME280;47462;59.172;17.196;2023-01-29T01:21:23;100733.44;;;0.24;88.19
61568;BME280;47462;59.172;17.196;2023-01-29T01:23:48;100800.78;;;0.67;87.67
61568;BME280;47462;59.172;17.196;2023-01-29T01:26:16;100778.25;;;0.47;87.81
61568;BME280;47462;59.172;17.196;2023-01-29T01:28:42;100785.28;;;0.61;88.16
61568;BME280;47462;59.172;17.196;2023-01-29T01:31:09;100797.41;;;0.69;87.71
61568;BME280;47462;59.172;17.196;2023-01-29T01:33:35;100750.78;;;0.40;88.05
61568;BME280;47462;59.172;17.196;2023-01-29T01:36:01;100797.25;;;0.59;88.10
61568;BME280;47462;59.172;17.196;2023-01-29T01:38:27;100749.00;;;0.36;88.15
61568;BME280;47462;59.172;17.196;2023-01-29T01:40:52;100784.41;;;0.59;87.98
61568;BME280;47462;59.172;17.196;2023-01-29T01:43:18;100778.41;;;0.60;87.88
61568;BME280;47462;59.172;17.196;2023-01-29T01:45:43;100759.41;;;0.47;88.01
61568;BME280;47462;59.172;17.196;2023-01-29T01:48:17;100791.44;;;0.70;87.66
61568;BME280;47462;59.172;17.196;2023-01-29T01:50:57;100779.41;;;0.68;88.03
61568;BME280;47462;59.172;17.196;2023-01-29T01:53:34;100778.47;;;0.64;87.81
61568;BME280;47462;59.172;17.196;2023-01-29T01:56:06;100720.75;;;0.34;87.90
61568;BME280;47462;59.172;17.196;2023-01-29T01:58:36;100775.06;;;0.64;87.55
61568;BME280;47462;59.172;17.196;2023-01-29T02:03:49;100753.59;;;0.59;87.65
61568;BME280;47462;59.172;17.196;2023-01-29T02:06:37;100751.66;;;0.42;87.64
61568;BME280;47462;59.172;17.196;2023-01-29T02:09:25;100750.88;;;0.46;87.64
61568;BME280;47462;59.172;17.196;2023-01-29T02:12:09;100745.72;;;0.46;87.77
61568;BME280;47462;59.172;17.196;2023-01-29T02:14:35;100727.66;;;0.39;87.74
61568;BME280;47462;59.172;17.196;2023-01-29T02:17:10;100744.13;;;0.55;87.70
61568;BME280;47462;59.172;17.196;2023-01-29T02:28:18;100679.50;;;0.22;87.62
61568;BME280;47462;59.172;17.196;2023-01-29T02:30:55;100711.44;;;0.44;87.38
61568;BME280;47462;59.172;17.196;2023-01-29T02:33:57;100706.34;;;0.47;87.40
61568;BME280;47462;59.172;17.196;2023-01-29T02:36:37;100697.81;;;0.47;87.34
61568;BME280;47462;59.172;17.196;2023-01-29T02:39:28;100641.69;;;0.09;87.40
61568;BME280;47462;59.172;17.196;2023-01-29T02:42:00;100695.22;;;0.47;87.81
61568;BME280;47462;59.172;17.196;2023-01-29T02:47:33;100704.69;;;0.49;87.83
61568;BME280;47462;59.172;17.196;2023-01-29T02:52:47;100673.75;;;0.40;87.41
61568;BME280;47462;59.172;17.196;2023-01-29T02:55:29;100615.16;;;0.07;87.63
61568;BME280;47462;59.172;17.196;2023-01-29T02:58:08;100601.44;;;0.03;87.25
61568;BME280;47462;59.172;17.196;2023-01-29T03:00:40;100645.44;;;0.32;87.58
61568;BME280;47462;59.172;17.196;2023-01-29T03:03:19;100674.72;;;0.50;87.52
61568;BME280;47462;59.172;17.196;2023-01-29T03:06:19;100675.56;;;0.50;87.55
61568;BME280;47462;59.172;17.196;2023-01-29T03:08:58;100664.47;;;0.51;87.68
61568;BME280;47462;59.172;17.196;2023-01-29T03:11:39;100627.38;;;0.25;87.36
61568;BME280;47462;59.172;17.196;2023-01-29T03:14:15;100624.78;;;0.23;87.37
61568;BME280;47462;59.172;17.196;2023-01-29T03:16:50;100671.34;;;0.52;87.26
61568;BME280;47462;59.172;17.196;2023-01-29T03:19:22;100658.50;;;0.52;87.05
61568;BME280;47462;59.172;17.196;2023-01-29T03:21:54;100661.88;;;0.48;87.24
61568;BME280;47462;59.172;17.196;2023-01-29T03:24:47;100660.09;;;0.44;87.07
61568;BME280;47462;59.172;17.196;2023-01-29T03:27:36;100630.91;;;0.36;87.45
61568;BME280;47462;59.172;17.196;2023-01-29T03:30:24;100607.72;;;0.27;87.25
61568;BME280;47462;59.172;17.196;2023-01-29T03:33:11;100637.94;;;0.49;87.52
61568;BME280;47462;59.172;17.196;2023-01-29T03:35:46;100643.91;;;0.50;86.86
61568;BME280;47462;59.172;17.196;2023-01-29T03:38:14;100632.69;;;0.40;86.99
61568;BME280;47462;59.172;17.196;2023-01-29T03:40:57;100636.03;;;0.34;87.25
61568;BME280;47462;59.172;17.196;2023-01-29T03:46:03;100500.84;;;-0.40;86.99
61568;BME280;47462;59.172;17.196;2023-01-29T03:48:36;100647.28;;;0.46;86.96
61568;BME280;47462;59.172;17.196;2023-01-29T03:51:24;100643.00;;;0.43;86.98
61568;BME280;47462;59.172;17.196;2023-01-29T03:56:34;100629.25;;;0.41;87.54
61568;BME280;47462;59.172;17.196;2023-01-29T03:59:15;100626.69;;;0.43;87.22
61568;BME280;47462;59.172;17.196;2023-01-29T04:01:47;100592.28;;;0.24;87.42
61568;BME280;47462;59.172;17.196;2023-01-29T04:04:23;100623.34;;;0.48;86.95
61568;BME280;47462;59.172;17.196;2023-01-29T04:06:51;100619.09;;;0.50;87.20
61568;BME280;47462;59.172;17.196;2023-01-29T04:09:24;100561.41;;;0.19;87.23
61568;BME280;47462;59.172;17.196;2023-01-29T04:12:04;100555.34;;;0.09;87.13
61568;BME280;47462;59.172;17.196;2023-01-29T04:14:33;100613.00;;;0.41;87.08
61568;BME280;47462;59.172;17.196;2023-01-29T04:17:01;100607.88;;;0.42;87.03
61568;BME280;47462;59.172;17.196;2023-01-29T04:19:27;100601.00;;;0.41;86.84
61568;BME280;47462;59.172;17.196;2023-01-29T04:22:02;100571.81;;;0.30;86.74
61568;BME280;47462;59.172;17.196;2023-01-29T04:24:29;100607.97;;;0.50;87.04
61568;BME280;47462;59.172;17.196;2023-01-29T04:26:59;100606.22;;;0.47;86.74
61568;BME280;47462;59.172;17.196;2023-01-29T04:40:47;100466.84;;;-0.25;86.74
61568;BME280;47462;59.172;17.196;2023-01-29T04:43:33;100591.72;;;0.49;86.62
61568;BME280;47462;59.172;17.196;2023-01-29T04:46:18;100595.13;;;0.48;86.98
61568;BME280;47462;59.172;17.196;2023-01-29T04:49:01;100556.38;;;0.28;87.03
61568;BME280;47462;59.172;17.196;2023-01-29T04:51:37;100571.16;;;0.49;87.23
61568;BME280;47462;59.172;17.196;2023-01-29T04:54:13;100554.06;;;0.51;86.77
61568;BME280;47462;59.172;17.196;2023-01-29T04:56:51;100526.53;;;0.38;86.85
61568;BME280;47462;59.172;17.196;2023-01-29T04:59:54;100523.13;;;0.39;86.95
61568;BME280;47462;59.172;17.196;2023-01-29T05:02:13;100444.84;;;-0.03;86.86
61568;BME280;47462;59.172;17.196;2023-01-29T05:04:39;100538.72;;;0.58;86.78
61568;BME280;47462;59.172;17.196;2023-01-29T05:07:10;100534.41;;;0.57;86.93
61568;BME280;47462;59.172;17.196;2023-01-29T05:09:38;100488.75;;;0.22;86.80
61568;BME280;47462;59.172;17.196;2023-01-29T05:12:06;100536.03;;;0.47;87.46
61568;BME280;47462;59.172;17.196;2023-01-29T05:14:33;100517.22;;;0.48;87.45
61568;BME280;47462;59.172;17.196;2023-01-29T05:17:01;100509.50;;;0.43;87.43
61568;BME280;47462;59.172;17.196;2023-01-29T05:19:27;100470.84;;;0.29;87.30
61568;BME280;47462;59.172;17.196;2023-01-29T05:21:53;100501.91;;;0.56;87.48
61568;BME280;47462;59.172;17.196;2023-01-29T05:24:20;100498.38;;;0.49;87.50
61568;BME280;47462;59.172;17.196;2023-01-29T05:26:48;100497.63;;;0.58;87.20
61568;BME280;47462;59.172;17.196;2023-01-29T05:29:33;100481.41;;;0.60;87.33
61568;BME280;47462;59.172;17.196;2023-01-29T05:31:58;100414.41;;;0.32;87.14
61568;BME280;47462;59.172;17.196;2023-01-29T05:34:24;100426.44;;;0.41;87.79
61568;BME280;47462;59.172;17.196;2023-01-29T05:36:49;100425.69;;;0.51;87.68
61568;BME280;47462;59.172;17.196;2023-01-29T05:39:15;100446.31;;;0.65;87.37
61568;BME280;47462;59.172;17.196;2023-01-29T05:41:41;100315.72;;;-0.05;87.61
61568;BME280;47462;59.172;17.196;2023-01-29T05:44:06;100372.44;;;0.29;87.18
61568;BME280;47462;59.172;17.196;2023-01-29T05:46:31;100440.41;;;0.76;87.66
61568;BME280;47462;59.172;17.196;2023-01-29T05:48:57;100437.00;;;0.77;87.32
61568;BME280;47462;59.172;17.196;2023-01-29T05:51:23;100406.97;;;0.68;87.32
61568;BME280;47462;59.172;17.196;2023-01-29T05:53:48;100415.56;;;0.76;87.68
61568;BME280;47462;59.172;17.196;2023-01-29T05:56:14;100415.63;;;0.84;87.43
61568;BME280;47462;59.172;17.196;2023-01-29T05:58:39;100377.00;;;0.67;87.57
61568;BME280;47462;59.172;17.196;2023-01-29T06:01:12;100401.13;;;0.87;87.42
61568;BME280;47462;59.172;17.196;2023-01-29T06:03:38;100389.06;;;0.77;87.38
61568;BME280;47462;59.172;17.196;2023-01-29T06:06:04;100413.09;;;0.92;87.31
61568;BME280;47462;59.172;17.196;2023-01-29T06:08:29;100343.50;;;0.51;87.20
61568;BME280;47462;59.172;17.196;2023-01-29T06:10:55;100383.03;;;0.72;87.39
61568;BME280;47462;59.172;17.196;2023-01-29T06:13:21;100324.63;;;0.40;87.57
61568;BME280;47462;59.172;17.196;2023-01-29T06:15:47;100398.50;;;0.81;87.60
61568;BME280;47462;59.172;17.196;2023-01-29T06:18:12;100418.22;;;0.87;87.50
61568;BME280;47462;59.172;17.196;2023-01-29T06:20:38;100410.50;;;0.84;87.23
61568;BME280;47462;59.172;17.196;2023-01-29T06:23:03;100400.13;;;0.70;87.74
61568;BME280;47462;59.172;17.196;2023-01-29T06:25:29;100427.69;;;0.94;87.61
61568;BME280;47462;59.172;17.196;2023-01-29T06:27:54;100407.91;;;0.81;87.36
61568;BME280;47462;59.172;17.196;2023-01-29T06:30:19;100408.81;;;0.87;87.21
61568;BME280;47462;59.172;17.196;2023-01-29T06:32:45;100377.91;;;0.74;87.62
61568;BME280;47462;59.172;17.196;2023-01-29T06:35:10;100407.94;;;0.88;87.73
61568;BME280;47462;59.172;17.196;2023-01-29T06:37:35;100418.31;;;1.01;87.72
61568;BME280;47462;59.172;17.196;2023-01-29T06:40:02;100413.16;;;1.02;87.70
61568;BME280;47462;59.172;17.196;2023-01-29T06:42:27;100415.69;;;0.92;87.41
61568;BME280;47462;59.172;17.196;2023-01-29T06:44:54;100403.69;;;0.89;87.65
61568;BME280;47462;59.172;17.196;2023-01-29T06:47:19;100414.00;;;0.94;87.33
61568;BME280;47462;59.172;17.196;2023-01-29T06:49:44;100340.09;;;0.49;87.50
61568;BME280;47462;59.172;17.196;2023-01-29T06:52:10;100368.50;;;0.76;87.57
61568;BME280;47462;59.172;17.196;2023-01-29T06:54:35;100354.78;;;0.72;87.49
61568;BME280;47462;59.172;17.196;2023-01-29T06:57:01;100394.25;;;0.86;87.60
61568;BME280;47462;59.172;17.196;2023-01-29T06:59:26;100365.94;;;0.77;87.41
61568;BME280;47462;59.172;17.196;2023-01-29T07:01:51;100364.25;;;0.82;87.53
61568;BME280;47462;59.172;17.196;2023-01-29T07:04:17;100329.03;;;0.63;87.63
61568;BME280;47462;59.172;17.196;2023-01-29T07:06:42;100317.88;;;0.59;87.77
61568;BME280;47462;59.172;17.196;2023-01-29T07:09:11;100371.16;;;0.93;87.83
61568;BME280;47462;59.172;17.196;2023-01-29T07:11:37;100359.13;;;0.87;87.50
61568;BME280;47462;59.172;17.196;2023-01-29T07:14:02;100306.72;;;0.51;87.90
61568;BME280;47462;59.172;17.196;2023-01-29T07:16:28;100297.28;;;0.47;88.13
61568;BME280;47462;59.172;17.196;2023-01-29T07:18:53;100352.31;;;0.89;87.92
61568;BME280;47462;59.172;17.196;2023-01-29T07:21:18;100354.88;;;0.87;87.75
61568;BME280;47462;59.172;17.196;2023-01-29T07:23:44;100299.00;;;0.46;87.64
61568;BME280;47462;59.172;17.196;2023-01-29T07:26:10;100343.66;;;0.76;87.54
61568;BME280;47462;59.172;17.196;2023-01-29T07:28:36;100329.94;;;0.71;87.70
61568;BME280;47462;59.172;17.196;2023-01-29T07:31:02;100337.72;;;0.82;87.50
61568;BME280;47462;59.172;17.196;2023-01-29T07:33:28;100304.16;;;0.49;87.49
61568;BME280;47462;59.172;17.196;2023-01-29T07:35:53;100336.81;;;0.72;87.71
61568;BME280;47462;59.172;17.196;2023-01-29T07:38:19;100360.84;;;0.85;87.44
61568;BME280;47462;59.172;17.196;2023-01-29T07:40:45;100314.47;;;0.59;87.35
61568;BME280;47462;59.172;17.196;2023-01-29T07:43:10;100338.53;;;0.79;87.11
61568;BME280;47462;59.172;17.196;2023-01-29T07:45:37;100330.03;;;0.86;87.16
61568;BME280;47462;59.172;17.196;2023-01-29T07:48:04;100297.41;;;0.73;87.07
61568;BME280;47462;59.172;17.196;2023-01-29T07:50:31;100316.31;;;0.84;87.13
61568;BME280;47462;59.172;17.196;2023-01-29T07:52:56;100311.19;;;0.84;87.06
61568;BME280;47462;59.172;17.196;2023-01-29T07:55:22;100262.22;;;0.60;86.94
61568;BME280;47462;59.172;17.196;2023-01-29T07:57:54;100263.13;;;0.65;87.04
61568;BME280;47462;59.172;17.196;2023-01-29T08:00:19;100217.69;;;0.50;87.08
61568;BME280;47462;59.172;17.196;2023-01-29T08:02:45;100288.09;;;0.89;86.84
61568;BME280;47462;59.172;17.196;2023-01-29T08:05:11;100215.97;;;0.50;87.12
61568;BME280;47462;59.172;17.196;2023-01-29T08:07:36;100247.78;;;0.80;87.05
61568;BME280;47462;59.172;17.196;2023-01-29T08:10:02;100226.38;;;0.77;87.01
61568;BME280;47462;59.172;17.196;2023-01-29T08:12:27;100246.13;;;0.98;87.05
61568;BME280;47462;59.172;17.196;2023-01-29T08:14:53;100247.03;;;1.08;87.11
61568;BME280;47462;59.172;17.196;2023-01-29T08:17:19;100161.25;;;0.64;86.83
61568;BME280;47462;59.172;17.196;2023-01-29T08:19:45;100097.84;;;0.37;87.02
61568;BME280;47462;59.172;17.196;2023-01-29T08:22:10;100235.06;;;1.22;87.17
61568;BME280;47462;59.172;17.196;2023-01-29T08:24:36;100205.03;;;1.12;87.16
61568;BME280;47462;59.172;17.196;2023-01-29T08:27:01;100220.50;;;1.30;87.14
61568;BME280;47462;59.172;17.196;2023-01-29T08:29:27;100190.50;;;1.15;86.85
61568;BME280;47462;59.172;17.196;2023-01-29T08:31:52;100220.50;;;1.29;86.80
61568;BME280;47462;59.172;17.196;2023-01-29T08:34:18;100170.78;;;1.05;87.10
61568;BME280;47462;59.172;17.196;2023-01-29T08:36:43;100215.41;;;1.39;86.96
61568;BME280;47462;59.172;17.196;2023-01-29T08:39:09;100158.78;;;1.07;86.69
61568;BME280;47462;59.172;17.196;2023-01-29T08:41:34;100189.66;;;1.29;87.21
61568;BME280;47462;59.172;17.196;2023-01-29T08:44:00;100163.94;;;1.30;87.22
61568;BME280;47462;59.172;17.196;2023-01-29T08:46:28;100121.13;;;1.12;86.76
61568;BME280;47462;59.172;17.196;2023-01-29T08:48:54;100060.28;;;0.77;86.53
61568;BME280;47462;59.172;17.196;2023-01-29T08:51:20;100187.13;;;1.55;87.17
61568;BME280;47462;59.172;17.196;2023-01-29T08:53:45;100173.38;;;1.47;86.82
61568;BME280;47462;59.172;17.196;2023-01-29T08:56:11;100175.94;;;1.56;86.69
61568;BME280;47462;59.172;17.196;2023-01-29T08:58:36;100151.13;;;1.49;86.86
61568;BME280;47462;59.172;17.196;2023-01-29T09:01:09;100112.53;;;1.24;86.74
61568;BME280;47462;59.172;17.196;2023-01-29T09:03:35;100165.66;;;1.57;87.00
61568;BME280;47462;59.172;17.196;2023-01-29T09:06:01;100171.69;;;1.56;86.60
61568;BME280;47462;59.172;17.196;2023-01-29T09:08:27;100186.22;;;1.60;86.77
61568;BME280;47462;59.172;17.196;2023-01-29T09:10:53;100169.09;;;1.53;86.67
61568;BME280;47462;59.172;17.196;2023-01-29T09:13:18;100153.69;;;1.49;86.83
61568;BME280;47462;59.172;17.196;2023-01-29T09:15:44;100090.28;;;1.08;86.96
61568;BME280;47462;59.172;17.196;2023-01-29T09:18:09;100169.09;;;1.56;87.11
61568;BME280;47462;59.172;17.196;2023-01-29T09:20:35;100136.53;;;1.34;86.98
61568;BME280;47462;59.172;17.196;2023-01-29T09:23:12;100179.38;;;1.66;86.90
61568;BME280;47462;59.172;17.196;2023-01-29T09:25:37;100167.38;;;1.66;86.92
61568;BME280;47462;59.172;17.196;2023-01-29T09:28:03;100157.09;;;1.54;87.39
61568;BME280;47462;59.172;17.196;2023-01-29T09:30:30;100087.69;;;1.34;87.05
61568;BME280;47462;59.172;17.196;2023-01-29T09:32:59;100141.63;;;1.80;87.00
61568;BME280;47462;59.172;17.196;2023-01-29T09:35:24;100104.78;;;1.67;86.88
61568;BME280;47462;59.172;17.196;2023-01-29T09:37:50;100058.56;;;1.33;86.56
61568;BME280;47462;59.172;17.196;2023-01-29T09:40:40;100092.81;;;1.51;87.23
61568;BME280;47462;59.172;17.196;2023-01-29T09:43:13;100109.94;;;1.63;86.97
61568;BME280;47462;59.172;17.196;2023-01-29T09:46:04;100050.84;;;1.32;86.54
61568;BME280;47462;59.172;17.196;2023-01-29T09:48:33;100106.47;;;1.68;86.89
61568;BME280;47462;59.172;17.196;2023-01-29T09:51:03;100091.91;;;1.75;86.67
61568;BME280;47462;59.172;17.196;2023-01-29T09:53:42;100109.03;;;1.81;86.62
61568;BME280;47462;59.172;17.196;2023-01-29T09:56:23;100124.44;;;1.93;86.34
61568;BME280;47462;59.172;17.196;2023-01-29T09:58:56;100109.88;;;1.93;86.87
61568;BME280;47462;59.172;17.196;2023-01-29T10:01:47;100101.28;;;1.99;86.48
61568;BME280;47462;59.172;17.196;2023-01-29T10:04:37;100097.84;;;1.97;86.42
61568;BME280;47462;59.172;17.196;2023-01-29T10:07:36;100091.84;;;1.96;86.64
61568;BME280;47462;59.172;17.196;2023-01-29T10:10:31;100064.44;;;1.86;86.78
61568;BME280;47462;59.172;17.196;2023-01-29T10:23:37;100016.41;;;1.79;86.60
61568;BME280;47462;59.172;17.196;2023-01-29T10:26:09;100018.91;;;1.96;86.56
61568;BME280;47462;59.172;17.196;2023-01-29T10:28:42;100040.31;;;2.12;86.21
61568;BME280;47462;59.172;17.196;2023-01-29T10:31:31;100006.09;;;1.85;86.73
61568;BME280;47462;59.172;17.196;2023-01-29T10:36:48;100037.72;;;2.18;86.50
61568;BME280;47462;59.172;17.196;2023-01-29T10:39:18;99979.53;;;1.85;86.74
61568;BME280;47462;59.172;17.196;2023-01-29T10:47:37;100008.53;;;2.18;86.80
61568;BME280;47462;59.172;17.196;2023-01-29T10:50:27;100011.97;;;2.18;86.47
61568;BME280;47462;59.172;17.196;2023-01-29T10:53:26;99981.13;;;2.07;86.82
61568;BME280;47462;59.172;17.196;2023-01-29T10:56:43;99993.84;;;2.34;86.64
61568;BME280;47462;59.172;17.196;2023-01-29T11:02:15;99854.41;;;1.70;86.35
61568;BME280;47462;59.172;17.196;2023-01-29T11:04:42;99939.78;;;2.32;86.32
61568;BME280;47462;59.172;17.196;2023-01-29T11:07:08;99967.09;;;2.55;85.97
61568;BME280;47462;59.172;17.196;2023-01-29T11:12:00;99943.84;;;2.62;85.92
61568;BME280;47462;59.172;17.196;2023-01-29T11:17:01;99885.63;;;2.44;85.82
61568;BME280;47462;59.172;17.196;2023-01-29T11:19:37;99895.72;;;2.67;85.93
61568;BME280;47462;59.172;17.196;2023-01-29T11:22:02;99912.00;;;2.71;85.68
61568;BME280;47462;59.172;17.196;2023-01-29T11:24:28;99815.53;;;2.13;85.47
61568;BME280;47462;59.172;17.196;2023-01-29T11:26:55;99921.53;;;2.61;85.74
61568;BME280;47462;59.172;17.196;2023-01-29T11:29:36;99857.38;;;2.35;85.54
61568;BME280;47462;59.172;17.196;2023-01-29T11:32:06;99892.22;;;2.75;85.48
61568;BME280;47462;59.172;17.196;2023-01-29T11:34:32;99905.91;;;2.80;85.39
61568;BME280;47462;59.172;17.196;2023-01-29T11:37:14;99883.59;;;2.79;85.73
61568;BME280;47462;59.172;17.196;2023-01-29T11:39:44;99874.06;;;2.85;85.57
61568;BME280;47462;59.172;17.196;2023-01-29T11:42:20;99843.22;;;2.79;85.53
61568;BME280;47462;59.172;17.196;2023-01-29T11:44:46;99868.72;;;3.02;85.20
61568;BME280;47462;59.172;17.196;2023-01-29T11:49:47;99836.91;;;3.05;84.96
61568;BME280;47462;59.172;17.196;2023-01-29T11:52:16;99822.28;;;3.07;85.11
61568;BME280;47462;59.172;17.196;2023-01-29T11:54:49;99811.16;;;3.03;85.11
61568;BME280;47462;59.172;17.196;2023-01-29T11:57:23;99817.00;;;3.16;85.03
61568;BME280;47462;59.172;17.196;2023-01-29T11:59:51;99775.16;;;2.96;84.56
61568;BME280;47462;59.172;17.196;2023-01-29T12:04:51;99792.88;;;3.22;84.64
61568;BME280;47462;59.172;17.196;2023-01-29T12:07:19;99763.00;;;3.06;84.10
61568;BME280;47462;59.172;17.196;2023-01-29T12:09:51;99785.06;;;3.27;84.21
61568;BME280;47462;59.172;17.196;2023-01-29T12:12:26;99782.47;;;3.30;84.36
61568;BME280;47462;59.172;17.196;2023-01-29T12:15:18;99781.59;;;3.28;84.03
61568;BME280;47462;59.172;17.196;2023-01-29T12:20:51;99739.47;;;3.29;84.23
61568;BME280;47462;59.172;17.196;2023-01-29T12:23:35;99735.75;;;3.50;84.44
61568;BME280;47462;59.172;17.196;2023-01-29T12:26:10;99613.72;;;2.90;83.63
61568;BME280;47462;59.172;17.196;2023-01-29T12:31:48;99711.66;;;3.51;83.85
61568;BME280;47462;59.172;17.196;2023-01-29T12:37:36;99706.53;;;3.48;84.17
61568;BME280;47462;59.172;17.196;2023-01-29T12:40:10;99702.25;;;3.47;84.26
61568;BME280;47462;59.172;17.196;2023-01-29T12:42:39;99690.28;;;3.43;84.20
61568;BME280;47462;59.172;17.196;2023-01-29T12:45:07;99673.31;;;3.29;84.52
61568;BME280;47462;59.172;17.196;2023-01-29T12:48:03;99601.91;;;2.77;84.30
61568;BME280;47462;59.172;17.196;2023-01-29T12:50:37;99684.34;;;3.37;84.40
61568;BME280;47462;59.172;17.196;2023-01-29T12:55:53;99596.50;;;2.92;84.25
61568;BME280;47462;59.172;17.196;2023-01-29T12:58:34;99653.41;;;3.36;84.53
61568;BME280;47462;59.172;17.196;2023-01-29T13:01:07;99608.94;;;3.21;84.72
61568;BME280;47462;59.172;17.196;2023-01-29T13:06:45;99641.81;;;3.63;84.54
61568;BME280;47462;59.172;17.196;2023-01-29T13:09:15;99579.44;;;3.38;84.50
61568;BME280;47462;59.172;17.196;2023-01-29T13:11:50;99628.72;;;3.72;84.13
61568;BME280;47462;59.172;17.196;2023-01-29T13:17:29;99620.97;;;3.74;83.73
61568;BME280;47462;59.172;17.196;2023-01-29T13:19:59;99602.88;;;3.75;84.11
61568;BME280;47462;59.172;17.196;2023-01-29T13:22:32;99599.38;;;3.77;84.20
61568;BME280;47462;59.172;17.196;2023-01-29T13:24:59;99514.19;;;3.34;83.92
61568;BME280;47462;59.172;17.196;2023-01-29T13:27:27;99586.56;;;3.72;83.76
61568;BME280;47462;59.172;17.196;2023-01-29T13:29:54;99500.53;;;3.28;83.98
61568;BME280;47462;59.172;17.196;2023-01-29T13:32:28;99568.50;;;3.72;83.86
61568;BME280;47462;59.172;17.196;2023-01-29T13:35:05;99565.97;;;3.70;83.90
61568;BME280;47462;59.172;17.196;2023-01-29T13:37:41;99568.50;;;3.72;84.08
61568;BME280;47462;59.172;17.196;2023-01-29T13:40:19;99563.34;;;3.72;84.11
61568;BME280;47462;59.172;17.196;2023-01-29T13:42:48;99478.25;;;3.25;83.93
61568;BME280;47462;59.172;17.196;2023-01-29T13:45:22;99556.47;;;3.74;83.68
61568;BME280;47462;59.172;17.196;2023-01-29T13:47:50;99556.38;;;3.79;83.87
61568;BME280;47462;59.172;17.196;2023-01-29T13:52:45;99477.84;;;3.47;83.27
61568;BME280;47462;59.172;17.196;2023-01-29T13:55:27;99533.88;;;3.84;83.24
61568;BME280;47462;59.172;17.196;2023-01-29T13:57:59;99484.50;;;3.59;83.54
61568;BME280;47462;59.172;17.196;2023-01-29T14:08:05;99485.00;;;3.76;83.31
61568;BME280;47462;59.172;17.196;2023-01-29T14:10:32;99476.38;;;3.79;83.43
61568;BME280;47462;59.172;17.196;2023-01-29T14:15:45;99464.84;;;3.95;83.18
61568;BME280;47462;59.172;17.196;2023-01-29T14:18:34;99441.78;;;3.86;83.16
61568;BME280;47462;59.172;17.196;2023-01-29T14:21:03;99438.25;;;3.90;82.75
61568;BME280;47462;59.172;17.196;2023-01-29T14:26:01;99415.22;;;3.82;82.95
61568;BME280;47462;59.172;17.196;2023-01-29T14:28:29;99455.13;;;4.06;82.68
61568;BME280;47462;59.172;17.196;2023-01-29T14:30:56;99416.81;;;3.88;82.56
61568;BME280;47462;59.172;17.196;2023-01-29T14:33:31;99404.16;;;3.77;82.32
61568;BME280;47462;59.172;17.196;2023-01-29T14:35:58;99427.16;;;3.86;82.66
61568;BME280;47462;59.172;17.196;2023-01-29T14:38:27;99443.22;;;3.99;82.27
61568;BME280;47462;59.172;17.196;2023-01-29T14:41:14;99433.88;;;3.93;82.57
61568;BME280;47462;59.172;17.196;2023-01-29T14:43:42;99375.06;;;3.69;82.37
61568;BME280;47462;59.172;17.196;2023-01-29T14:48:59;99357.94;;;3.66;82.31
61568;BME280;47462;59.172;17.196;2023-01-29T14:51:25;99418.16;;;4.06;82.22
61568;BME280;47462;59.172;17.196;2023-01-29T14:54:10;99393.38;;;3.97;81.83
61568;BME280;47462;59.172;17.196;2023-01-29T14:56:57;99389.16;;;3.93;82.31